TRA26B EHAM-LCPH
Flight info
| Callsign | TRA26B |
|---|---|
| Flight time | N/A |
| Altitude | 37000 |
| Route | EDUPO Z739 MISGO DCT EKSAK DCT SWALM DCT GASKA DCT ENITA DCT ETVIS DCT BUDWA DCT BUDEX DCT ARSIN DCT BABIT DCT NEPOS DCT NISVA DCT USALI DCT RODIP DCT BELGI UN131 KULAR UT39 TOMBI DCT DASNI DCT TOBAL |
| Aircraft | B738/M-SDE2E3FGHIJ1RWXYZ/LB1 |
Departure
| Time | N/A |
|---|---|
| Airport | Amsterdam Airport Schiphol (EHAM) |
Arrival
| Time | 2026-04-29 16:07 |
|---|---|
| Airport | Paphos International Airport (LCPH) |
| Time | Latitude | Longitude | Altitude | Speed | Heading |
|---|---|---|---|---|---|
| 2026-04-29 15:33 | 36.70930 | 30.26437 | 37020 ft | 470 kts | 148° |
| 2026-04-29 15:33 | 36.65481 | 30.31045 | 37008 ft | 470 kts | 148° |
| 2026-04-29 15:34 | 36.60160 | 30.35692 | 37000 ft | 472 kts | 143° |
| 2026-04-29 15:34 | 36.55181 | 30.41034 | 36991 ft | 473 kts | 140° |
| 2026-04-29 15:35 | 36.50276 | 30.46469 | 36988 ft | 472 kts | 141° |
| 2026-04-29 15:35 | 36.45349 | 30.51859 | 36980 ft | 471 kts | 141° |
| 2026-04-29 15:36 | 36.40406 | 30.57199 | 36979 ft | 470 kts | 141° |
| 2026-04-29 15:36 | 36.35471 | 30.62501 | 36975 ft | 469 kts | 141° |
| 2026-04-29 15:37 | 36.30540 | 30.67787 | 36945 ft | 469 kts | 141° |
| 2026-04-29 15:37 | 36.28066 | 30.70437 | 36566 ft | 470 kts | 141° |
| 2026-04-29 15:37 | 36.25615 | 30.73062 | 36231 ft | 463 kts | 141° |
| 2026-04-29 15:37 | 36.23185 | 30.75663 | 35830 ft | 459 kts | 141° |
| 2026-04-29 15:38 | 36.20783 | 30.78232 | 35430 ft | 455 kts | 141° |
| 2026-04-29 15:38 | 36.18394 | 30.80784 | 35041 ft | 451 kts | 141° |
| 2026-04-29 15:38 | 36.16026 | 30.83311 | 34649 ft | 448 kts | 141° |
| 2026-04-29 15:38 | 36.13676 | 30.85816 | 34259 ft | 445 kts | 141° |
| 2026-04-29 15:39 | 36.11338 | 30.88307 | 33852 ft | 442 kts | 141° |
| 2026-04-29 15:39 | 36.09020 | 30.90774 | 33409 ft | 439 kts | 141° |
| 2026-04-29 15:39 | 36.06715 | 30.93227 | 32998 ft | 435 kts | 141° |
| 2026-04-29 15:39 | 36.04435 | 30.95649 | 32618 ft | 431 kts | 141° |
| 2026-04-29 15:40 | 36.02204 | 30.98019 | 32233 ft | 427 kts | 141° |
| 2026-04-29 15:40 | 35.99958 | 31.00402 | 31867 ft | 423 kts | 141° |
| 2026-04-29 15:40 | 35.97735 | 31.02760 | 31489 ft | 420 kts | 141° |
| 2026-04-29 15:40 | 35.95495 | 31.05133 | 31120 ft | 417 kts | 141° |
| 2026-04-29 15:41 | 35.93333 | 31.07422 | 30756 ft | 414 kts | 141° |
| 2026-04-29 15:41 | 35.91158 | 31.09723 | 30397 ft | 411 kts | 141° |
| 2026-04-29 15:41 | 35.88994 | 31.12010 | 30034 ft | 408 kts | 141° |
| 2026-04-29 15:41 | 35.86849 | 31.14276 | 29616 ft | 405 kts | 141° |
| 2026-04-29 15:42 | 35.84747 | 31.16495 | 29254 ft | 400 kts | 141° |
| 2026-04-29 15:42 | 35.82642 | 31.18716 | 28861 ft | 397 kts | 141° |
| 2026-04-29 15:42 | 35.80559 | 31.20911 | 28500 ft | 393 kts | 141° |
| 2026-04-29 15:42 | 35.78490 | 31.23090 | 28128 ft | 389 kts | 141° |
| 2026-04-29 15:43 | 35.76442 | 31.25246 | 27758 ft | 386 kts | 141° |
| 2026-04-29 15:43 | 35.74410 | 31.27383 | 27390 ft | 383 kts | 141° |
| 2026-04-29 15:43 | 35.72390 | 31.29506 | 27027 ft | 380 kts | 141° |
| 2026-04-29 15:43 | 35.70389 | 31.31608 | 26669 ft | 377 kts | 141° |
| 2026-04-29 15:44 | 35.68397 | 31.33699 | 26312 ft | 375 kts | 141° |
| 2026-04-29 15:44 | 35.66421 | 31.35771 | 25960 ft | 372 kts | 141° |
| 2026-04-29 15:44 | 35.64455 | 31.37832 | 25608 ft | 370 kts | 141° |
| 2026-04-29 15:44 | 35.62503 | 31.39876 | 25261 ft | 368 kts | 140° |
| 2026-04-29 15:45 | 35.60558 | 31.41913 | 24914 ft | 366 kts | 140° |
| 2026-04-29 15:45 | 35.58626 | 31.43933 | 24568 ft | 364 kts | 140° |
| 2026-04-29 15:45 | 35.56699 | 31.45948 | 24214 ft | 363 kts | 140° |
| 2026-04-29 15:45 | 35.54783 | 31.47950 | 23875 ft | 361 kts | 140° |
| 2026-04-29 15:46 | 35.52874 | 31.49943 | 23520 ft | 360 kts | 140° |
| 2026-04-29 15:46 | 35.50965 | 31.51934 | 23110 ft | 359 kts | 140° |
| 2026-04-29 15:46 | 35.49070 | 31.53911 | 22736 ft | 357 kts | 140° |
| 2026-04-29 15:46 | 35.47182 | 31.55878 | 22376 ft | 355 kts | 140° |
| 2026-04-29 15:47 | 35.45307 | 31.57831 | 22025 ft | 352 kts | 140° |
| 2026-04-29 15:47 | 35.43447 | 31.59767 | 21679 ft | 350 kts | 140° |
| 2026-04-29 15:47 | 35.41599 | 31.61689 | 21343 ft | 348 kts | 140° |
| 2026-04-29 15:47 | 35.39758 | 31.63603 | 21002 ft | 346 kts | 140° |
| 2026-04-29 15:48 | 35.37932 | 31.65500 | 20667 ft | 344 kts | 140° |
| 2026-04-29 15:48 | 35.36110 | 31.67391 | 20333 ft | 342 kts | 140° |
| 2026-04-29 15:48 | 35.34301 | 31.69268 | 20000 ft | 341 kts | 140° |
| 2026-04-29 15:48 | 35.32494 | 31.71142 | 19667 ft | 339 kts | 140° |
| 2026-04-29 15:49 | 35.30699 | 31.73002 | 19334 ft | 338 kts | 140° |
| 2026-04-29 15:49 | 35.28905 | 31.74860 | 19002 ft | 337 kts | 140° |
| 2026-04-29 15:49 | 35.27119 | 31.76709 | 18669 ft | 336 kts | 140° |
| 2026-04-29 15:49 | 35.25334 | 31.78556 | 18330 ft | 336 kts | 140° |
| 2026-04-29 15:50 | 35.23552 | 31.80398 | 17945 ft | 335 kts | 140° |
| 2026-04-29 15:50 | 35.21773 | 31.82236 | 17589 ft | 334 kts | 140° |
| 2026-04-29 15:50 | 35.20006 | 31.84060 | 17243 ft | 332 kts | 140° |
| 2026-04-29 15:50 | 35.18245 | 31.85878 | 16906 ft | 330 kts | 140° |
| 2026-04-29 15:51 | 35.16494 | 31.87684 | 16569 ft | 328 kts | 140° |
| 2026-04-29 15:51 | 35.14803 | 31.89428 | 16254 ft | 327 kts | 140° |
| 2026-04-29 15:51 | 35.13045 | 31.91238 | 15921 ft | 325 kts | 140° |
| 2026-04-29 15:51 | 35.11321 | 31.93014 | 15594 ft | 324 kts | 140° |
| 2026-04-29 15:52 | 35.09601 | 31.94784 | 15266 ft | 322 kts | 140° |
| 2026-04-29 15:52 | 35.07891 | 31.96543 | 14942 ft | 321 kts | 140° |
| 2026-04-29 15:52 | 35.06186 | 31.98295 | 14613 ft | 320 kts | 140° |
| 2026-04-29 15:52 | 35.04505 | 32.00022 | 14295 ft | 319 kts | 140° |
| 2026-04-29 15:53 | 35.02811 | 32.01762 | 13967 ft | 318 kts | 140° |
| 2026-04-29 15:53 | 35.01116 | 32.03502 | 13603 ft | 318 kts | 140° |
| 2026-04-29 15:53 | 34.99428 | 32.05234 | 13256 ft | 317 kts | 140° |
| 2026-04-29 15:53 | 34.97724 | 32.06981 | 12911 ft | 315 kts | 140° |
| 2026-04-29 15:54 | 34.96074 | 32.08672 | 12588 ft | 313 kts | 140° |
| 2026-04-29 15:54 | 34.94411 | 32.10375 | 12257 ft | 312 kts | 140° |
| 2026-04-29 15:54 | 34.92757 | 32.12069 | 11930 ft | 310 kts | 139° |
| 2026-04-29 15:54 | 34.91233 | 32.13908 | 11610 ft | 308 kts | 131° |
| 2026-04-29 15:55 | 34.89855 | 32.15898 | 11295 ft | 306 kts | 128° |
| 2026-04-29 15:55 | 34.88519 | 32.17909 | 10985 ft | 305 kts | 128° |
| 2026-04-29 15:55 | 34.87185 | 32.19917 | 10657 ft | 304 kts | 128° |
| 2026-04-29 15:55 | 34.85852 | 32.21902 | 10338 ft | 302 kts | 129° |
| 2026-04-29 15:56 | 34.84523 | 32.23862 | 10160 ft | 296 kts | 129° |
| 2026-04-29 15:56 | 34.83226 | 32.25762 | 10008 ft | 289 kts | 129° |
| 2026-04-29 15:56 | 34.81939 | 32.27638 | 9696 ft | 288 kts | 129° |
| 2026-04-29 15:56 | 34.80658 | 32.29499 | 9393 ft | 286 kts | 129° |
| 2026-04-29 15:57 | 34.79385 | 32.31346 | 9098 ft | 284 kts | 129° |
| 2026-04-29 15:57 | 34.78116 | 32.33184 | 8801 ft | 282 kts | 130° |
| 2026-04-29 15:57 | 34.76857 | 32.35005 | 8512 ft | 281 kts | 130° |
| 2026-04-29 15:57 | 34.75603 | 32.36818 | 8226 ft | 279 kts | 130° |
| 2026-04-29 15:58 | 34.74359 | 32.38615 | 7941 ft | 277 kts | 130° |
| 2026-04-29 15:58 | 34.73118 | 32.40407 | 7656 ft | 276 kts | 130° |
| 2026-04-29 15:58 | 34.71886 | 32.42185 | 7371 ft | 274 kts | 130° |
| 2026-04-29 15:58 | 34.70661 | 32.43953 | 7078 ft | 273 kts | 130° |
| 2026-04-29 15:59 | 34.69439 | 32.45715 | 6804 ft | 272 kts | 130° |
| 2026-04-29 15:59 | 34.68224 | 32.47463 | 6522 ft | 270 kts | 130° |
| 2026-04-29 15:59 | 34.67013 | 32.49207 | 6231 ft | 269 kts | 130° |
| 2026-04-29 15:59 | 34.65809 | 32.50938 | 5941 ft | 268 kts | 130° |
| 2026-04-29 16:00 | 34.64610 | 32.52664 | 5644 ft | 266 kts | 130° |
| 2026-04-29 16:00 | 34.63420 | 32.54375 | 5360 ft | 265 kts | 130° |
| 2026-04-29 16:00 | 34.62247 | 32.56060 | 5235 ft | 257 kts | 130° |
| 2026-04-29 16:00 | 34.61107 | 32.57697 | 5109 ft | 250 kts | 130° |
| 2026-04-29 16:01 | 34.60002 | 32.59284 | 4994 ft | 243 kts | 130° |
| 2026-04-29 16:01 | 34.58938 | 32.60840 | 4831 ft | 238 kts | 127° |
| 2026-04-29 16:01 | 34.58189 | 32.62598 | 4614 ft | 235 kts | 105° |
| 2026-04-29 16:01 | 34.58075 | 32.64559 | 4380 ft | 234 kts | 82° |
| 2026-04-29 16:02 | 34.58589 | 32.66410 | 4145 ft | 232 kts | 60° |
| 2026-04-29 16:02 | 34.59612 | 32.67907 | 3909 ft | 231 kts | 39° |
| 2026-04-29 16:02 | 34.60977 | 32.68862 | 3716 ft | 224 kts | 19° |
| 2026-04-29 16:02 | 34.62482 | 32.69178 | 3456 ft | 218 kts | 358° |
| 2026-04-29 16:03 | 34.63950 | 32.68868 | 3219 ft | 212 kts | 339° |
| 2026-04-29 16:03 | 34.65206 | 32.68025 | 3012 ft | 203 kts | 320° |
| 2026-04-29 16:03 | 34.66119 | 32.66796 | 2814 ft | 195 kts | 301° |
| 2026-04-29 16:03 | 34.66715 | 32.65335 | 2659 ft | 186 kts | 291° |
| 2026-04-29 16:04 | 34.67160 | 32.63905 | 2440 ft | 176 kts | 289° |
| 2026-04-29 16:04 | 34.67563 | 32.62558 | 2195 ft | 167 kts | 289° |
| 2026-04-29 16:04 | 34.67944 | 32.61286 | 2034 ft | 154 kts | 289° |
| 2026-04-29 16:04 | 34.68318 | 32.60048 | 1815 ft | 153 kts | 289° |
| 2026-04-29 16:05 | 34.68679 | 32.58854 | 1634 ft | 151 kts | 289° |
| 2026-04-29 16:05 | 34.69040 | 32.57660 | 1391 ft | 151 kts | 289° |
| 2026-04-29 16:05 | 34.69398 | 32.56477 | 1220 ft | 148 kts | 289° |
| 2026-04-29 16:05 | 34.69747 | 32.55310 | 1003 ft | 146 kts | 289° |
| 2026-04-29 16:06 | 34.70093 | 32.54156 | 825 ft | 145 kts | 288° |
| 2026-04-29 16:06 | 34.70445 | 32.53010 | 605 ft | 144 kts | 291° |
| 2026-04-29 16:06 | 34.70794 | 32.51874 | 464 ft | 143 kts | 289° |
| 2026-04-29 16:06 | 34.71136 | 32.50718 | 243 ft | 145 kts | 289° |
| 2026-04-29 16:07 | 34.71489 | 32.49566 | 55 ft | 144 kts | 289° |
| 2026-04-29 16:07 | 34.71709 | 32.48844 | 47 ft | 124 kts | 289° |
| 2026-04-29 16:07 | 34.71975 | 32.47965 | 44 ft | 50 kts | 290° |
| 2026-04-29 16:07 | 34.72095 | 32.47567 | 45 ft | 48 kts | 290° |
| 2026-04-29 16:08 | 34.72201 | 32.47220 | 42 ft | 28 kts | 291° |
| 2026-04-29 16:08 | 34.72296 | 32.47135 | 43 ft | 19 kts | 22° |
| 2026-04-29 16:08 | 34.72386 | 32.47211 | 44 ft | 15 kts | 98° |
| 2026-04-29 16:08 | 34.72350 | 32.47330 | 44 ft | 15 kts | 111° |
| 2026-04-29 16:09 | 34.72314 | 32.47444 | 44 ft | 14 kts | 110° |
| 2026-04-29 16:09 | 34.72281 | 32.47555 | 45 ft | 15 kts | 110° |
| 2026-04-29 16:09 | 34.72241 | 32.47686 | 45 ft | 19 kts | 110° |
| 2026-04-29 16:09 | 34.72191 | 32.47848 | 45 ft | 22 kts | 110° |
| 2026-04-29 16:10 | 34.72131 | 32.48041 | 43 ft | 26 kts | 110° |
| 2026-04-29 16:10 | 34.72064 | 32.48260 | 45 ft | 29 kts | 110° |
| 2026-04-29 16:10 | 34.72007 | 32.48446 | 44 ft | 14 kts | 110° |
| 2026-04-29 16:10 | 34.71917 | 32.48472 | 44 ft | 17 kts | 201° |
| 2026-04-29 16:11 | 34.71799 | 32.48418 | 45 ft | 19 kts | 200° |
| 2026-04-29 16:11 | 34.71670 | 32.48359 | 45 ft | 21 kts | 200° |
| 2026-04-29 16:11 | 34.71525 | 32.48295 | 45 ft | 22 kts | 200° |
| 2026-04-29 16:11 | 34.71403 | 32.48242 | 45 ft | 10 kts | 187° |
| 2026-04-29 16:12 | 34.71387 | 32.48315 | 45 ft | 12 kts | 83° |
| 2026-04-29 16:12 | 34.71375 | 32.48383 | 45 ft | 13 kts | 111° |
| 2026-04-29 16:12 | 34.71349 | 32.48521 | 45 ft | 13 kts | 66° |
| 2026-04-29 16:12 | 34.71376 | 32.48603 | 44 ft | 4 kts | 98° |
| 2026-04-29 16:13 | 34.71353 | 32.48614 | 45 ft | 5 kts | 175° |
| 2026-04-29 16:13 | 34.71313 | 32.48632 | 45 ft | 6 kts | 155° |
| 2026-04-29 16:13 | 34.71299 | 32.48640 | 45 ft | 0 kts | 155° |